Terminal Aerodrome Forecast
Issued by NWS

Home | Current Version | Previous Version | Text Only | Print | Product List | Glossary On
Versions: 1 2 3 4 5 6 7 8 9 10 11 12 13 14 15 16 17 18 19 20 21 22 23 24 25 26 27 28 29 30 31 32 33 34 35 36 37 38 39 40 41 42 43 44 45 46
817
FTUS43 KDTX 190911 AAA
TAFYIP
TAF AMD
KYIP 190911Z 1909/2006 22008KT P6SM OVC006
     FM191400 20006KT P6SM OVC008
     FM191800 17005KT P6SM OVC012
     FM200000 09004KT P6SM BKN005 OVC120
      TEMPO 2000/2004 SCT005 OVC120=

USA.gov is the U.S. government's official web portal to all federal, state and local government web resources and services.